Time;durP1;ratioP1;P1;durP2;ratioP2;P2;SDS_P1;SDS_P2;PMS_P1;PMS_P2;Temp;Humidity;BMP_temperature;BMP_pressure;BME280_temperature;BME280_humidity;BME280_pressure;Samples;Min_cycle;Max_cycle;Signal;HPM_P1;HPM_P2
2022/05/11 00:03:33;;;;;;;11.77;5.80;;;;;;;17.27;52.35;100326.70;3470501;84;99530;-82
2022/05/11 00:08:37;;;;;;;11.00;5.62;;;;;;;17.24;52.47;100331.73;3489646;84;30882;-84
2022/05/11 00:13:39;;;;;;;15.75;5.83;;;;;;;17.23;52.52;100323.19;3472673;84;99141;-84
2022/05/11 00:18:41;;;;;;;16.42;6.22;;;;;;;17.08;53.14;100300.23;3480493;83;99395;-84
2022/05/11 00:23:45;;;;;;;15.85;7.53;;;;;;;17.10;53.37;100305.55;3475508;83;98960;-84
2022/05/11 00:28:47;;;;;;;11.88;6.40;;;;;;;17.07;53.66;100304.22;3417535;82;99119;-84
2022/05/11 00:33:48;;;;;;;12.33;5.78;;;;;;;17.01;54.61;100299.73;3448694;81;98979;-84
2022/05/11 00:38:52;;;;;;;14.68;6.65;;;;;;;16.94;54.28;100294.30;3484694;84;29937;-84
2022/05/11 00:43:58;;;;;;;13.88;6.08;;;;;;;16.88;55.50;100291.03;3453233;84;99287;-84
2022/05/11 00:54:27;;;;;;;11.45;6.30;;;;;;;16.71;55.34;100283.17;3485213;83;98997;-84
2022/05/11 00:59:32;;;;;;;12.05;6.35;;;;;;;16.61;56.01;100279.95;3468502;83;98960;-84
2022/05/11 01:04:41;;;;;;;11.03;6.20;;;;;;;16.46;56.63;100278.59;3481928;84;99222;-84
2022/05/11 01:09:42;;;;;;;11.55;6.00;;;;;;;16.35;56.54;100276.55;3482331;83;99121;-84
2022/05/11 01:14:48;;;;;;;15.03;7.05;;;;;;;16.22;56.62;100278.34;3486496;84;98781;-84
2022/05/11 01:19:49;;;;;;;;;;;;;;;16.08;57.20;100271.58;3491299;83;99198;-84
2022/05/11 01:24:50;;;;;;;11.93;6.33;;;;;;;16.00;59.12;100271.51;3485561;83;84937;-84
2022/05/11 01:29:55;;;;;;;10.00;5.43;;;;;;;15.92;57.29;100267.23;3487784;82;99450;-84
2022/05/11 01:35:14;;;;;;;14.55;7.28;;;;;;;15.85;57.55;100258.21;3481792;83;99428;-84
2022/05/11 01:40:15;;;;;;;11.12;5.95;;;;;;;15.75;57.96;100257.77;3493232;82;98961;-84
2022/05/11 01:45:17;;;;;;;10.30;6.30;;;;;;;15.63;59.45;100248.00;3471971;83;98999;-84
2022/05/11 01:50:18;;;;;;;15.05;7.87;;;;;;;15.55;59.54;100254.84;3497783;82;99174;-84
2022/05/11 01:55:20;;;;;;;14.80;7.50;;;;;;;15.52;59.38;100251.50;3459827;83;99056;-84
2022/05/11 02:00:21;;;;;;;16.10;7.70;;;;;;;15.53;60.35;100238.43;3466189;84;99481;-85
2022/05/11 02:10:42;;;;;;;12.63;7.80;;;;;;;15.48;61.53;100225.02;3482912;83;99449;-84
2022/05/11 02:15:44;;;;;;;14.43;7.83;;;;;;;15.47;61.85;100232.53;3461801;82;98921;-84
2022/05/11 02:20:45;;;;;;;14.58;6.75;;;;;;;15.46;62.78;100226.81;3490637;82;99188;-84
2022/05/11 02:25:51;;;;;;;16.43;7.60;;;;;;;15.47;62.74;100224.22;3495813;84;99276;-84
2022/05/11 02:30:54;;;;;;;15.58;8.08;;;;;;;15.49;63.23;100225.97;3433958;83;99218;-84
2022/05/11 02:35:55;;;;;;;15.80;8.38;;;;;;;15.51;63.30;100219.42;3475827;82;99100;-84
2022/05/11 02:40:57;;;;;;;14.93;8.55;;;;;;;15.55;63.91;100212.44;3473843;81;98990;-85
2022/05/11 02:45:58;;;;;;;17.60;8.40;;;;;;;15.60;63.66;100203.05;3476349;84;99023;-85
2022/05/11 02:51:04;;;;;;;13.90;7.47;;;;;;;15.65;64.21;100199.81;3471308;84;99143;-84
2022/05/11 02:56:05;;;;;;;13.15;7.10;;;;;;;15.72;64.10;100198.94;3468902;84;99156;-85
2022/05/11 03:01:07;;;;;;;15.32;8.38;;;;;;;15.79;64.04;100207.95;3470409;83;99373;-84
2022/05/11 03:06:13;;;;;;;17.57;9.73;;;;;;;15.86;64.39;100218.19;3456678;84;99627;-87
2022/05/11 03:11:14;;;;;;;15.70;8.55;;;;;;;15.92;64.69;100224.84;3474215;81;99028;-85
2022/05/11 03:16:15;;;;;;;15.60;6.95;;;;;;;15.99;64.61;100217.79;3463545;84;99054;-84
2022/05/11 03:21:17;;;;;;;20.00;9.25;;;;;;;16.02;64.99;100238.55;3445065;84;99027;-85
2022/05/11 03:26:18;;;;;;;16.20;9.33;;;;;;;16.06;65.34;100224.03;3478482;84;99172;-85
2022/05/11 03:31:19;;;;;;;13.95;7.33;;;;;;;16.10;65.40;100206.73;3474076;81;99269;-84
2022/05/11 03:36:21;;;;;;;15.50;8.80;;;;;;;16.10;65.56;100209.50;3491654;84;99394;-85
2022/05/11 03:41:23;;;;;;;15.78;8.93;;;;;;;16.15;65.71;100216.56;3487280;82;99001;-85
2022/05/11 03:46:24;;;;;;;14.28;8.55;;;;;;;16.21;65.45;100207.95;3499405;82;98941;-84
2022/05/11 03:51:26;;;;;;;14.78;8.53;;;;;;;16.26;65.64;100216.59;3483614;82;99341;-84
2022/05/11 03:56:28;;;;;;;14.38;8.88;;;;;;;16.28;65.68;100221.71;3496136;84;32304;-85
2022/05/11 04:01:29;;;;;;;13.60;9.50;;;;;;;16.30;65.87;100220.70;3484955;83;99219;-85
2022/05/11 04:06:30;;;;;;;14.87;7.53;;;;;;;16.34;65.75;100210.30;3472128;83;99039;-85
2022/05/11 04:11:33;;;;;;;12.40;7.67;;;;;;;16.37;65.92;100216.42;3468168;82;98952;-85
2022/05/11 04:16:34;;;;;;;21.07;10.28;;;;;;;16.38;65.76;100224.94;3493415;84;98193;-85
2022/05/11 04:21:35;;;;;;;15.25;7.85;;;;;;;16.36;66.40;100221.80;3468211;83;99452;-85
2022/05/11 04:26:36;;;;;;;12.03;8.05;;;;;;;16.39;66.74;100218.99;3495404;84;29899;-84
2022/05/11 04:31:37;;;;;;;14.10;8.17;;;;;;;16.40;66.70;100229.52;3480789;83;99213;-84
2022/05/11 04:36:41;;;;;;;14.73;8.63;;;;;;;16.45;66.68;100223.48;3482408;81;99500;-84
2022/05/11 04:41:42;;;;;;;13.88;9.60;;;;;;;16.50;67.01;100227.14;3487181;83;99372;-84
2022/05/11 04:46:43;;;;;;;13.87;8.80;;;;;;;16.50;67.45;100225.75;3485200;83;99144;-84
2022/05/11 04:51:45;;;;;;;15.63;8.57;;;;;;;16.55;67.39;100228.86;3463796;84;99582;-85
2022/05/11 04:56:49;;;;;;;14.10;10.17;;;;;;;16.60;67.48;100232.55;3485686;84;31416;-84
2022/05/11 05:01:51;;;;;;;18.17;10.30;;;;;;;16.66;67.26;100241.97;3471385;82;99526;-84
2022/05/11 05:06:52;;;;;;;17.15;10.75;;;;;;;16.70;67.75;100244.69;3475140;84;99431;-84
2022/05/11 05:11:54;;;;;;;17.52;9.25;;;;;;;16.78;67.71;100255.27;3468774;82;99401;-84
2022/05/11 05:17:07;;;;;;;17.80;10.38;;;;;;;16.85;68.58;100256.52;3465421;82;99513;-84
2022/05/11 05:22:08;;;;;;;17.40;11.38;;;;;;;16.90;68.67;100265.00;3436223;81;99613;-83
2022/05/11 05:27:15;;;;;;;20.00;12.25;;;;;;;17.03;68.53;100265.95;3446020;84;31679;-83
2022/05/11 05:32:17;;;;;;;17.17;9.93;;;;;;;17.19;68.48;100264.67;3465275;83;99501;-85
2022/05/11 05:37:19;;;;;;;14.85;11.22;;;;;;;17.38;68.13;100270.88;3486966;84;98881;-85
2022/05/11 05:42:26;;;;;;;16.02;11.55;;;;;;;17.55;68.04;100271.94;3459022;83;99233;-85
2022/05/11 05:47:28;;;;;;;17.75;11.33;;;;;;;17.74;68.15;100278.13;3471535;82;99165;-83
2022/05/11 05:52:31;;;;;;;17.75;11.93;;;;;;;17.92;67.46;100294.48;3456504;84;99017;-84
2022/05/11 05:57:32;;;;;;;18.62;12.30;;;;;;;18.13;67.36;100297.59;3485813;84;99560;-85
2022/05/11 06:02:34;;;;;;;19.25;12.30;;;;;;;18.34;66.94;100290.19;3479005;84;99154;-85
2022/05/11 06:07:35;;;;;;;19.67;11.80;;;;;;;18.62;66.51;100287.34;3486335;82;99345;-85
2022/05/11 06:12:36;;;;;;;26.13;12.77;;;;;;;18.88;65.65;100289.89;3480434;83;99719;-85
2022/05/11 06:17:37;;;;;;;18.52;10.58;;;;;;;19.17;65.24;100282.36;3479060;84;99269;-84
2022/05/11 06:22:39;;;;;;;20.88;12.23;;;;;;;19.48;64.24;100282.16;3426194;83;99298;-84
2022/05/11 06:27:40;;;;;;;20.15;11.25;;;;;;;19.77;63.36;100289.11;3434970;83;99542;-85
2022/05/11 06:32:42;;;;;;;16.65;11.12;;;;;;;20.17;62.82;100284.14;3477843;83;99095;-85
2022/05/11 06:37:45;;;;;;;16.15;11.95;;;;;;;20.64;62.10;100287.08;3464475;83;99820;-85
2022/05/11 06:42:48;;;;;;;15.83;11.20;;;;;;;20.89;61.15;100285.69;3482436;82;99436;-84
2022/05/11 06:47:50;;;;;;;17.17;11.48;;;;;;;21.29;60.16;100279.10;3481320;83;99214;-84
2022/05/11 06:52:53;;;;;;;17.30;10.40;;;;;;;21.53;59.22;100285.83;3457046;83;99522;-84
2022/05/11 07:03:15;;;;;;;19.57;10.38;;;;;;;22.42;57.92;100285.50;3476098;83;98695;-85
2022/05/11 07:08:18;;;;;;;14.95;10.45;;;;;;;22.77;56.75;100286.94;3464183;83;98888;-85
2022/05/11 07:13:19;;;;;;;17.60;11.05;;;;;;;23.18;55.25;100279.41;3475671;83;99012;-85
2022/05/11 07:18:20;;;;;;;14.75;10.30;;;;;;;23.58;53.80;100291.28;3486233;84;99187;-85
2022/05/11 07:23:24;;;;;;;22.32;11.43;;;;;;;23.70;52.92;100291.77;3470307;83;99251;-82
2022/05/11 07:28:25;;;;;;;20.05;11.97;;;;;;;23.87;51.91;100295.80;3487507;84;98350;-83
2022/05/11 07:33:28;;;;;;;16.07;9.70;;;;;;;23.97;51.61;100301.61;3459396;83;99650;-83
2022/05/11 07:38:29;;;;;;;18.37;11.60;;;;;;;23.87;51.25;100313.44;3471401;83;32370;-85
2022/05/11 07:43:31;;;;;;;17.52;11.75;;;;;;;23.87;51.29;100310.63;3464356;84;99216;-83
2022/05/11 07:48:32;;;;;;;20.72;10.93;;;;;;;23.79;49.75;100300.96;3454087;82;99620;-83
2022/05/11 07:53:34;;;;;;;14.07;12.13;;;;;;;23.84;50.21;100317.20;3418297;84;99470;-85
2022/05/11 08:03:55;;;;;;;16.80;10.15;;;;;;;24.03;50.16;100302.53;3433084;84;99213;-83
2022/05/11 08:08:57;;;;;;;13.68;9.28;;;;;;;24.27;51.20;100299.97;3418362;84;25888;-83
2022/05/11 08:13:58;;;;;;;15.63;7.87;;;;;;;24.37;50.75;100293.69;3469504;82;99268;-82
2022/05/11 08:19:00;;;;;;;22.90;9.08;;;;;;;24.60;49.55;100300.83;3468187;82;99148;-82
2022/05/11 08:24:01;;;;;;;21.10;9.78;;;;;;;24.80;49.42;100311.52;3477626;81;99293;-82
2022/05/11 08:29:05;;;;;;;13.60;9.50;;;;;;;25.16;48.27;100308.48;3478519;82;99397;-82
2022/05/11 08:34:09;;;;;;;17.02;9.95;;;;;;;25.31;48.94;100306.55;3452514;80;98975;-84
2022/05/11 08:39:10;;;;;;;12.93;8.53;;;;;;;25.89;48.88;100289.79;3458798;84;25859;-81
2022/05/11 08:44:18;;;;;;;15.93;8.35;;;;;;;26.30;48.51;100290.95;3453020;83;98975;-82
2022/05/11 08:49:59;;;;;;;8.78;5.35;;;;;;;26.89;47.07;100287.41;3437847;85;99000;-83
2022/05/11 08:55:11;;;;;;;10.72;6.35;;;;;;;27.26;47.02;100295.53;3441673;83;98663;-83
2022/05/11 09:00:17;;;;;;;10.28;6.10;;;;;;;27.59;45.86;100295.95;3446103;82;98940;-84
2022/05/11 09:05:23;;;;;;;9.90;5.83;;;;;;;27.78;44.68;100298.63;3447832;84;98833;-83
2022/05/11 09:10:32;;;;;;;12.15;6.67;;;;;;;27.81;43.68;100295.60;3448977;82;98888;-83
2022/05/11 09:15:59;;;;;;;14.15;7.17;;;;;;;28.09;44.52;100305.15;3450341;84;99064;-85
2022/05/11 09:21:06;;;;;;;10.13;7.30;;;;;;;28.22;43.51;100292.78;3449610;84;99142;-83
2022/05/11 09:26:16;;;;;;;11.55;6.72;;;;;;;28.41;43.62;100281.28;3457974;85;99280;-84
2022/05/11 09:31:35;;;;;;;13.72;7.05;;;;;;;28.60;43.86;100281.03;3404455;84;99121;-83
2022/05/11 09:37:03;;;;;;;8.70;5.72;;;;;;;28.87;43.55;100280.45;3461385;83;99051;-82
2022/05/11 09:42:17;;;;;;;8.33;5.33;;;;;;;29.15;43.21;100282.83;3448913;83;99215;-83
2022/05/11 09:47:30;;;;;;;11.03;6.23;;;;;;;29.12;42.42;100275.34;3451960;83;99235;-82
2022/05/11 09:52:34;;;;;;;13.30;6.22;;;;;;;29.01;42.15;100264.59;3448388;82;99281;-84
2022/05/11 09:57:37;;;;;;;10.93;6.33;;;;;;;29.03;41.17;100267.05;3432030;83;99457;-83
2022/05/11 10:02:51;;;;;;;13.75;6.83;;;;;;;28.91;40.97;100247.63;3447081;83;99193;-82
2022/05/11 10:08:07;;;;;;;10.03;6.05;;;;;;;28.49;40.70;100237.06;3454907;83;98825;-82
2022/05/11 10:13:23;;;;;;;10.15;7.00;;;;;;;28.94;40.93;100238.88;3450506;82;98971;-81
2022/05/11 10:24:04;;;;;;;15.08;7.03;;;;;;;28.77;39.88;100234.42;3447881;83;99072;-82
2022/05/11 10:29:17;;;;;;;14.43;7.15;;;;;;;28.54;39.62;100221.38;3456806;81;98986;-84
2022/05/11 10:34:23;;;;;;;11.03;6.80;;;;;;;28.74;40.98;100224.09;3443608;81;99017;-83
2022/05/11 10:39:59;;;;;;;12.37;6.92;;;;;;;29.16;40.13;100212.09;3451731;84;26359;-82
2022/05/11 10:45:20;;;;;;;18.25;8.40;;;;;;;29.42;38.81;100197.77;3458353;84;99014;-82
2022/05/11 10:50:41;;;;;;;14.75;7.37;;;;;;;29.48;38.04;100195.05;3458800;83;98822;-82
2022/05/11 10:56:00;;;;;;;14.20;7.78;;;;;;;29.46;37.90;100177.00;3461975;84;99321;-82
2022/05/11 11:01:15;;;;;;;12.55;7.35;;;;;;;29.86;38.15;100166.00;3458203;82;99451;-81
2022/05/11 11:07:14;;;;;;;13.15;7.62;;;;;;;30.05;37.54;100149.23;3494205;83;99275;-81
2022/05/11 11:12:51;;;;;;;14.40;7.45;;;;;;;30.49;36.79;100144.92;3504635;81;99498;-82
2022/05/11 11:17:55;;;;;;;11.78;6.58;;;;;;;31.40;37.18;100151.45;3490068;81;99423;-82
2022/05/11 11:23:17;;;;;;;10.32;6.80;;;;;;;32.27;35.58;100132.16;3502661;82;99044;-87
2022/05/11 11:28:22;;;;;;;10.05;7.45;;;;;;;32.74;33.60;100134.85;3504632;82;99040;-85
2022/05/11 11:33:24;;;;;;;10.60;6.80;;;;;;;32.41;32.20;100124.51;3498064;83;99024;-86
2022/05/11 11:38:42;;;;;;;21.90;8.05;;;;;;;32.35;32.05;100128.04;3489058;82;98812;-82
2022/05/11 11:43:54;;;;;;;12.98;7.20;;;;;;;31.53;32.42;100115.27;3503051;83;98928;-84
2022/05/11 11:49:11;;;;;;;9.68;6.42;;;;;;;31.55;32.95;100116.28;3509484;82;99462;-83
2022/05/11 11:54:26;;;;;;;10.23;7.05;;;;;;;31.14;32.62;100101.29;3501101;82;98930;-86
2022/05/11 11:59:32;;;;;;;14.47;7.60;;;;;;;30.96;32.35;100102.55;3500535;83;99397;-85
2022/05/11 12:04:38;;;;;;;13.88;8.28;;;;;;;30.46;32.50;100094.19;3478165;82;99080;-85
2022/05/11 12:15:20;;;;;;;12.50;8.25;;;;;;;30.38;33.04;100094.63;3507250;82;98734;-85
2022/05/11 12:20:21;;;;;;;13.30;9.08;;;;;;;30.35;33.33;100075.02;3495730;81;98895;-86
2022/05/11 12:25:29;;;;;;;16.80;7.55;;;;;;;30.43;33.45;100056.91;3503398;83;98964;-85
2022/05/11 12:30:34;;;;;;;17.42;8.13;;;;;;;30.30;34.10;100054.51;3507765;81;99459;-85
2022/05/11 12:35:41;;;;;;;15.68;8.80;;;;;;;30.51;34.34;100045.12;3491695;82;99058;-84
2022/05/11 12:40:50;;;;;;;16.15;7.97;;;;;;;30.48;34.05;100042.55;3469343;82;99470;-84
2022/05/11 12:45:55;;;;;;;13.58;8.28;;;;;;;30.47;34.34;100038.17;3460694;83;26267;-85
2022/05/11 12:51:04;;;;;;;14.05;8.45;;;;;;;30.51;34.06;100022.39;3431321;84;99005;-86
2022/05/11 12:56:17;;;;;;;14.10;7.53;;;;;;;30.19;34.22;100016.97;3481163;80;98837;-86
2022/05/11 13:01:22;;;;;;;12.20;7.92;;;;;;;29.83;34.26;100005.95;3482704;82;99172;-87
2022/05/11 13:06:34;;;;;;;16.40;7.42;;;;;;;29.78;34.57;100001.05;3486569;83;99048;-89
2022/05/11 13:11:37;;;;;;;12.47;7.28;;;;;;;29.69;33.91;99983.66;3472808;81;99194;-84
2022/05/11 13:16:50;;;;;;;9.23;6.63;;;;;;;29.58;33.83;99990.02;3479562;82;98750;-83
2022/05/11 13:21:56;;;;;;;26.85;6.97;;;;;;;29.51;34.09;99971.42;3475408;83;98600;-87
2022/05/11 13:26:57;;;;;;;7.67;5.87;;;;;;;29.58;33.44;99982.27;3483808;83;98459;-84
2022/05/11 13:32:05;;;;;;;8.83;6.00;;;;;;;29.57;33.79;99959.45;3473279;82;99812;-85
2022/05/11 13:37:26;;;;;;;14.35;5.97;;;;;;;29.72;33.75;99956.33;3488433;82;98738;-90
2022/05/11 13:42:31;;;;;;;13.93;5.45;;;;;;;29.50;32.97;99944.99;3482404;82;99047;-87
2022/05/11 13:53:19;;;;;;;11.00;5.72;;;;;;;29.08;33.16;99929.05;3480775;82;99238;-85
2022/05/11 13:58:34;;;;;;;13.78;5.80;;;;;;;29.07;33.35;99923.89;3464915;82;99341;-85
2022/05/11 14:03:58;;;;;;;16.05;6.05;;;;;;;28.86;33.45;99916.27;3479169;83;98918;-86
2022/05/11 14:09:00;;;;;;;12.37;5.55;;;;;;;28.59;33.10;99913.39;3480841;83;98614;-86
2022/05/11 14:14:01;;;;;;;11.22;5.35;;;;;;;28.45;33.74;99906.67;3479166;82;98935;-87
2022/05/11 14:19:03;;;;;;;12.20;5.75;;;;;;;28.53;34.03;99898.45;3488044;83;99281;-86
2022/05/11 14:24:04;;;;;;;10.35;5.40;;;;;;;28.70;34.36;99887.92;3462022;82;99421;-86
2022/05/11 14:29:05;;;;;;;9.50;4.50;;;;;;;28.83;33.70;99881.88;3485915;81;99225;-84
2022/05/11 14:34:12;;;;;;;10.93;5.20;;;;;;;28.80;33.49;99874.42;3481477;82;98732;-85
2022/05/11 14:39:17;;;;;;;11.08;5.25;;;;;;;28.82;32.94;99866.17;3486949;83;26428;-87
2022/05/11 14:44:20;;;;;;;10.50;4.92;;;;;;;28.68;32.69;99871.46;3472604;83;99200;-86
2022/05/11 14:49:21;;;;;;;11.08;4.80;;;;;;;28.45;32.82;99854.30;3485024;81;99356;-85
2022/05/11 14:54:22;;;;;;;13.62;5.17;;;;;;;28.45;33.04;99851.47;3458281;83;99196;-87
2022/05/11 15:04:44;;;;;;;9.23;4.70;;;;;;;28.33;32.81;99834.97;3476591;82;99611;-85
2022/05/11 15:09:45;;;;;;;10.68;4.60;;;;;;;28.29;32.85;99827.38;3461702;84;26667;-88
2022/05/11 15:14:46;;;;;;;9.35;5.37;;;;;;;28.26;33.20;99829.16;3483296;82;98831;-89
2022/05/11 15:19:47;;;;;;;14.95;4.85;;;;;;;28.30;33.35;99832.52;3474535;83;98578;-85
2022/05/11 15:24:48;;;;;;;9.20;4.30;;;;;;;28.37;33.30;99823.52;3444390;82;99289;-87
2022/05/11 15:29:50;;;;;;;9.63;4.92;;;;;;;28.26;33.03;99802.28;3484587;83;98912;-87
2022/05/11 15:34:52;;;;;;;9.65;4.67;;;;;;;28.26;33.03;99802.28;3470222;82;100065;-91
2022/05/11 15:39:53;;;;;;;10.50;4.45;;;;;;;28.40;33.35;99818.26;3509380;83;25815;-88
2022/05/11 15:44:56;;;;;;;11.50;4.33;;;;;;;28.43;33.48;99811.59;3501288;82;98742;-88
2022/05/11 15:49:58;;;;;;;9.68;4.22;;;;;;;28.26;33.14;99785.30;3504589;82;99013;-87
2022/05/11 15:54:59;;;;;;;9.88;4.70;;;;;;;28.18;32.79;99808.30;3506968;83;98727;-88
2022/05/11 16:00:01;;;;;;;9.65;4.22;;;;;;;28.10;33.09;99805.85;3510833;82;98716;-86
2022/05/11 16:05:04;;;;;;;9.35;4.95;;;;;;;28.00;33.33;99806.61;3503650;83;98631;-85
2022/05/11 16:10:07;;;;;;;8.43;4.40;;;;;;;27.90;33.73;99802.47;3501242;82;98989;-85
2022/05/11 16:15:13;;;;;;;11.20;4.58;;;;;;;27.78;33.78;99793.16;3503742;83;98467;-88
2022/05/11 16:20:14;;;;;;;12.98;5.92;;;;;;;27.71;34.09;99793.64;3510918;83;99121;-87
2022/05/11 16:25:15;;;;;;;13.60;4.95;;;;;;;27.65;34.17;99781.53;3492693;82;98894;-87
2022/05/11 16:30:16;;;;;;;9.53;4.80;;;;;;;27.66;34.38;99781.66;3512808;82;98827;-87
2022/05/11 16:35:19;;;;;;;11.10;4.45;;;;;;;27.58;34.24;99782.00;3497721;83;99020;-87
2022/05/11 16:40:21;;;;;;;8.83;4.50;;;;;;;27.44;34.42;99773.09;3506494;81;99238;-88
2022/05/11 16:45:22;;;;;;;8.53;4.22;;;;;;;27.37;34.78;99774.22;3502225;82;98200;-86
2022/05/11 16:50:23;;;;;;;9.83;4.65;;;;;;;27.36;34.82;99761.38;3506475;82;98830;-87
2022/05/11 16:55:24;;;;;;;8.93;4.33;;;;;;;27.33;35.15;99760.34;3488891;82;98652;-89
2022/05/11 17:00:25;;;;;;;12.98;4.67;;;;;;;27.27;35.00;99763.78;3505578;80;99204;-84
2022/05/11 17:05:26;;;;;;;14.85;4.75;;;;;;;27.20;35.04;99750.77;3496375;82;98778;-89
2022/05/11 17:10:27;;;;;;;13.78;4.90;;;;;;;27.12;35.23;99751.06;3400806;85;99194;-86
2022/05/11 17:15:28;;;;;;;14.33;4.95;;;;;;;27.02;35.31;99756.16;3380961;84;99363;-87
2022/05/11 17:20:35;;;;;;;12.35;4.03;;;;;;;26.94;35.24;99764.98;3402138;84;98785;-88
2022/05/11 17:25:34;;;;;;;12.00;4.30;;;;;;;26.85;35.32;99755.91;3399662;84;98810;-87
2022/05/11 17:30:36;;;;;;;9.85;4.97;;;;;;;26.75;35.51;99754.59;3402626;84;99287;-86
2022/05/11 17:35:37;;;;;;;9.23;4.62;;;;;;;26.64;35.59;99760.91;3326618;86;99336;-86
2022/05/11 17:40:38;;;;;;;11.15;5.10;;;;;;;26.54;35.75;99757.35;3403609;85;99161;-87
2022/05/11 17:45:40;;;;;;;10.13;4.67;;;;;;;26.42;36.00;99742.37;3429366;85;31676;-86
2022/05/11 17:50:42;;;;;;;7.67;4.35;;;;;;;26.32;36.20;99748.71;3386259;84;98867;-85
2022/05/11 17:55:45;;;;;;;10.40;4.42;;;;;;;26.21;36.49;99746.55;3428070;83;98448;-86
2022/05/11 18:00:49;;;;;;;10.95;4.92;;;;;;;26.10;36.76;99748.52;3368972;85;99130;-85
2022/05/11 18:05:51;;;;;;;12.00;5.00;;;;;;;25.97;37.08;99746.09;3357063;85;98901;-84
2022/05/11 18:10:52;;;;;;;9.68;4.40;;;;;;;25.83;37.41;99746.92;3337072;86;98956;-86
2022/05/11 18:15:53;;;;;;;8.20;4.70;;;;;;;25.71;37.68;99743.86;3415721;85;31677;-83
2022/05/11 18:20:54;;;;;;;8.70;4.50;;;;;;;25.55;38.11;99747.27;3353795;83;98644;-87
2022/05/11 18:25:55;;;;;;;11.43;5.00;;;;;;;25.39;38.40;99739.38;3395624;84;98569;-85
2022/05/11 18:30:57;;;;;;;8.48;4.97;;;;;;;25.26;38.69;99746.64;3368806;84;99236;-85
2022/05/11 18:35:59;;;;;;;13.18;5.55;;;;;;;25.11;39.07;99746.69;3423196;84;98771;-86
2022/05/11 18:41:00;;;;;;;12.23;5.08;;;;;;;24.95;39.46;99748.64;3390439;85;98967;-85
2022/05/11 18:46:06;;;;;;;14.15;5.25;;;;;;;24.78;39.74;99744.03;3422480;85;32263;-85
2022/05/11 18:51:07;;;;;;;13.40;5.45;;;;;;;24.63;40.06;99751.75;3416487;84;98857;-86
2022/05/11 18:56:08;;;;;;;17.50;6.08;;;;;;;24.45;40.49;99759.75;3416281;84;98818;-85
2022/05/11 19:01:09;;;;;;;14.38;6.45;;;;;;;24.29;40.93;99765.09;3349661;85;98985;-85
2022/05/11 19:06:10;;;;;;;12.60;5.17;;;;;;;24.13;41.23;99765.61;3346858;87;99038;-85
2022/05/11 19:11:12;;;;;;;14.43;6.08;;;;;;;23.97;41.72;99762.63;3415702;82;99230;-86
2022/05/11 19:16:13;;;;;;;18.60;6.60;;;;;;;23.82;42.09;99755.42;3433656;84;99166;-86
2022/05/11 19:21:15;;;;;;;16.82;6.90;;;;;;;23.70;42.50;99762.84;3423879;83;98809;-85
2022/05/11 19:26:16;;;;;;;13.35;6.30;;;;;;;23.58;42.92;99756.08;3408639;84;98654;-86
2022/05/11 19:31:18;;;;;;;15.68;6.03;;;;;;;23.43;43.23;99756.70;3411605;84;98963;-86
2022/05/11 19:36:19;;;;;;;12.13;6.87;;;;;;;23.29;43.58;99746.98;3413454;84;99090;-85
2022/05/11 19:41:20;;;;;;;11.80;6.67;;;;;;;23.15;44.03;99743.45;3409061;83;99178;-85
2022/05/11 19:46:24;;;;;;;15.83;6.80;;;;;;;23.02;44.68;99740.11;3389150;85;99261;-87
2022/05/11 19:51:25;;;;;;;11.75;6.87;;;;;;;22.89;45.24;99740.20;3392753;85;98910;-84
2022/05/11 19:56:26;;;;;;;11.68;7.17;;;;;;;22.77;45.73;99739.80;3401789;84;98660;-83
2022/05/11 20:01:27;;;;;;;15.32;7.62;;;;;;;22.64;46.37;99730.81;3383892;84;98810;-84
2022/05/11 20:06:28;;;;;;;11.12;7.22;;;;;;;22.51;46.88;99726.82;3322296;87;99017;-84
2022/05/11 20:11:31;;;;;;;17.10;8.38;;;;;;;22.43;47.35;99727.61;3408944;84;98914;-84
2022/05/11 20:16:33;;;;;;;10.60;7.10;;;;;;;22.33;47.99;99718.47;3415058;84;98829;-86
2022/05/11 20:21:35;;;;;;;12.60;7.72;;;;;;;22.26;48.45;99714.61;3395663;84;98871;-85
2022/05/11 20:26:36;;;;;;;18.07;8.10;;;;;;;22.18;49.04;99718.22;3401006;86;99179;-85
2022/05/11 20:36:56;;;;;;;12.73;8.60;;;;;;;22.09;50.08;99709.83;3406295;82;99229;-86
2022/05/11 20:41:57;;;;;;;17.77;8.45;;;;;;;22.01;50.34;99712.83;3366394;84;99146;-84
2022/05/11 20:46:58;;;;;;;14.43;9.18;;;;;;;21.95;50.60;99713.28;3366659;86;98952;-87
2022/05/11 20:51:59;;;;;;;12.90;7.70;;;;;;;21.88;50.96;99705.22;3389205;85;99134;-87
2022/05/11 20:57:00;;;;;;;19.70;8.30;;;;;;;21.84;51.28;99699.78;3400506;84;98533;-85
2022/05/11 21:02:01;;;;;;;15.40;8.55;;;;;;;21.79;51.41;99696.85;3410058;82;99116;-84
2022/05/11 21:07:02;;;;;;;28.85;9.55;;;;;;;21.76;51.69;99695.77;3331045;87;99143;-84
2022/05/11 21:12:04;;;;;;;16.10;8.38;;;;;;;21.73;51.88;99692.49;3396201;84;99183;-84
2022/05/11 21:17:05;;;;;;;14.63;8.53;;;;;;;21.72;52.14;99691.55;3364073;86;99106;-84
2022/05/11 21:22:06;;;;;;;15.35;8.20;;;;;;;21.66;52.21;99688.59;3430621;84;98530;-83
2022/05/11 21:27:07;;;;;;;14.63;8.48;;;;;;;21.62;52.30;99684.38;3403520;84;98556;-85
2022/05/11 21:32:09;;;;;;;12.90;8.18;;;;;;;21.58;52.46;99682.39;3399597;85;99052;-85
2022/05/11 21:37:10;;;;;;;13.72;7.87;;;;;;;21.53;52.50;99679.58;3379315;85;98657;-85
2022/05/11 21:42:11;;;;;;;14.33;8.08;;;;;;;21.50;52.66;99677.73;3325803;86;98873;-85
2022/05/11 21:47:14;;;;;;;11.33;7.40;;;;;;;21.47;52.80;99671.66;3367140;84;98920;-87
2022/05/11 21:52:15;;;;;;;12.53;8.10;;;;;;;21.44;53.00;99674.00;3354699;85;99141;-84
2022/05/11 21:57:16;;;;;;;12.65;8.40;;;;;;;21.40;53.04;99672.59;3367453;85;30122;-85
2022/05/11 22:02:17;;;;;;;12.93;7.47;;;;;;;21.35;53.17;99665.61;3352981;84;99151;-83
2022/05/11 22:07:18;;;;;;;13.00;7.80;;;;;;;21.30;53.33;99655.67;3322358;85;98827;-85
2022/05/11 22:12:19;;;;;;;13.50;7.75;;;;;;;21.25;53.73;99661.25;3344253;86;99212;-84
2022/05/11 22:17:19;;;;;;;12.05;7.55;;;;;;;21.21;53.68;99655.67;3361170;85;98933;-84
2022/05/11 22:22:21;;;;;;;14.38;7.97;;;;;;;21.16;53.91;99652.88;3350664;85;99130;-82
2022/05/11 22:27:22;;;;;;;11.03;7.58;;;;;;;21.12;53.91;99643.06;3351256;85;35419;-86
2022/05/11 22:32:23;;;;;;;11.40;7.97;;;;;;;21.07;54.00;99643.08;3343261;86;99097;-84
2022/05/11 22:37:24;;;;;;;13.03;8.28;;;;;;;21.02;54.04;99640.90;3329611;86;99266;-84
2022/05/11 22:42:25;;;;;;;12.67;7.97;;;;;;;20.96;54.24;99632.98;3391845;85;99220;-86
2022/05/11 22:47:26;;;;;;;11.68;8.10;;;;;;;20.89;54.54;99633.30;3393430;85;99150;-85
2022/05/11 22:52:28;;;;;;;14.93;7.60;;;;;;;20.83;54.54;99621.75;3386760;85;98982;-83
2022/05/11 22:57:30;;;;;;;11.95;7.20;;;;;;;20.81;54.67;99617.25;3366439;86;34911;-84
2022/05/11 23:02:31;;;;;;;14.30;7.85;;;;;;;20.77;54.77;99612.43;3407583;84;98940;-84
2022/05/11 23:07:32;;;;;;;13.93;8.20;;;;;;;20.73;54.86;99614.59;3430880;84;98725;-87
2022/05/11 23:12:33;;;;;;;12.20;7.87;;;;;;;20.71;55.04;99610.09;3424953;83;98799;-84
2022/05/11 23:17:34;;;;;;;12.60;7.55;;;;;;;20.68;55.00;99599.83;3428943;84;99290;-84
2022/05/11 23:22:36;;;;;;;12.75;8.28;;;;;;;20.66;55.10;99603.72;3415991;83;99200;-87
2022/05/11 23:27:38;;;;;;;13.88;8.05;;;;;;;20.62;55.15;99591.91;3428096;85;35686;-83
2022/05/11 23:32:39;;;;;;;17.70;9.60;;;;;;;20.60;55.34;99599.98;3423362;83;99117;-85
2022/05/11 23:37:42;;;;;;;12.23;7.05;;;;;;;20.57;55.36;99594.70;3425618;83;99177;-84
2022/05/11 23:42:43;;;;;;;14.25;7.95;;;;;;;20.54;55.42;99589.27;3424235;84;98926;-83
2022/05/11 23:47:50;;;;;;;10.75;7.50;;;;;;;20.50;55.48;99579.61;3413751;83;98904;-86
2022/05/11 23:52:51;;;;;;;10.18;7.00;;;;;;;20.49;55.63;99574.50;3419425;82;98921;-85
2022/05/11 23:57:52;;;;;;;14.13;7.78;;;;;;;20.45;55.50;99571.86;3430356;84;25777;-84
